Página principal
METAR-TAF:

METAR-TAF

Aeroportos :

Vestmannaeyjar, Islândia

latitude: 63-24N, longitude: 020-17W, altura: 118 m

Observação actual do tempo

O boletim foi feito há 12 minutos, às 11:00 UTC
Vento 12 kt de oes-noroeste
Temperatura 10°C
Humidade 87%
Pressão 985 hPa
Visibilidade 10 km ou mais
Poucas nuvensa uma altura de 1500 ft
Nuvens fragmentadasa uma altura de 3200 ft

METAR: BIVM 191100Z 29012KT 9999 FEW015 BKN032 10/08 Q0985

Hora: 11:12 (11:12 UTC)

Previsão

O boletim foi feito há 55 minutos, às 10:17 UTC
Previsão válida de 19 às 11 UTC a 19 às 20 UTC
Vento 12 kt de noroeste
Visibilidade 10 km ou mais
Nuvens fragmentadasa uma altura de 4000 ft

TAF: BIVM 191017Z 1911/1920 32012KT 9999 BKN040

Observações e previsões do tempo de mais de 4000 aeroportos (mensagens METAR e TAF).

As estações disponíveis são os pontos amarelos e vermelhos sobre o mapa.

Mova o rato sobre o mapa para ver o nome da estação.

Depois clique no ponto para visualizar as observações e previsões meteorológicas.

Para alterar o mapa : clique nos botões verdes com uma cruz preta para aumentar o zoom; no botão verde com uma pitada de zoom; ou nas setas verdes para mapas adjacentes.


METAR-TAF: